Time;durP1;ratioP1;P1;durP2;ratioP2;P2;SDS_P1;SDS_P2;PMS_P1;PMS_P2;Temp;Humidity;BMP_temperature;BMP_pressure;BME280_temperature;BME280_humidity;BME280_pressure;Samples;Min_cycle;Max_cycle;Signal;HPM_P1;HPM_P2
2022/04/01 00:00:26;;;;;;;;;0.00;0.00;;;;;15.95;46.33;100597.69;4934313;29;8824;-70
2022/04/01 00:02:51;;;;;;;;;0.33;0.00;;;;;15.99;46.58;100599.44;4934638;29;8917;-70
2022/04/01 00:05:17;;;;;;;;;0.00;0.00;;;;;15.93;46.78;100583.66;4933968;29;8864;-70
2022/04/01 00:07:42;;;;;;;;;0.00;0.00;;;;;15.88;46.48;100599.47;4934049;29;8849;-70
2022/04/01 00:10:08;;;;;;;;;0.00;0.00;;;;;15.91;46.49;100602.09;4934285;29;8797;-70
2022/04/01 00:12:42;;;;;;;;;0.00;0.00;;;;;15.90;46.30;100617.88;4931108;29;8903;-70
2022/04/01 00:15:08;;;;;;;;;0.00;0.00;;;;;15.90;46.75;100607.34;4933781;29;9566;-69
2022/04/01 00:17:33;;;;;;;;;0.75;0.00;;;;;15.91;46.54;100620.53;4934306;29;9522;-70
2022/04/01 00:19:59;;;;;;;;;0.00;0.00;;;;;15.91;46.67;100606.47;4932737;29;9442;-70
2022/04/01 00:22:27;;;;;;;;;0.00;0.00;;;;;15.90;46.34;100597.69;4934105;29;8793;-70
2022/04/01 00:24:52;;;;;;;;;0.00;0.00;;;;;15.87;46.46;100602.97;4933969;29;8813;-70
2022/04/01 00:27:17;;;;;;;;;0.00;0.00;;;;;15.92;46.36;100617.00;4933362;29;9509;-70
2022/04/01 00:29:48;;;;;;;;;0.00;0.00;;;;;15.96;46.33;100612.63;4934022;29;8881;-70
2022/04/01 00:32:14;;;;;;;;;0.00;0.00;;;;;15.95;46.40;100601.19;4933425;29;8828;-70
2022/04/01 00:34:40;;;;;;;;;0.00;0.00;;;;;15.88;46.14;100612.63;4934131;29;9414;-70
2022/04/01 00:37:05;;;;;;;;;0.00;0.00;;;;;15.90;46.33;100615.25;4933474;29;8872;-70
2022/04/01 00:39:31;;;;;;;;;0.00;0.00;;;;;16.00;46.42;100619.63;4933314;29;8980;-70
2022/04/01 00:42:01;;;;;;;;;0.00;0.00;;;;;15.91;46.25;100625.78;4933152;29;8801;-70
2022/04/01 00:44:29;;;;;;;;;0.00;0.00;;;;;15.96;46.03;100612.63;4933933;29;9652;-71
2022/04/01 00:47:09;;;;;;;;;0.00;0.00;;;;;15.88;46.36;100638.97;4932859;29;9489;-71
2022/04/01 00:49:34;;;;;;;;;1.00;0.00;;;;;15.89;46.45;100630.19;4933587;29;9389;-70
2022/04/01 00:52:05;;;;;;;;;0.00;0.00;;;;;15.85;46.18;100630.22;4933544;29;9508;-70
2022/04/01 00:54:31;;;;;;;;;0.00;0.00;;;;;15.89;46.52;100640.72;4933306;29;8940;-70
2022/04/01 00:56:56;;;;;;;;;0.00;0.00;;;;;15.84;46.12;100645.13;4933296;29;9394;-71
2022/04/01 00:59:24;;;;;;;;;0.00;0.00;;;;;15.89;46.39;100637.22;4933600;29;8840;-70
2022/04/01 01:01:49;;;;;;;;;1.00;0.00;;;;;15.88;46.03;100623.16;4933314;29;8820;-70
2022/04/01 01:04:17;;;;;;;;;0.00;0.00;;;;;15.86;46.04;100642.47;4932831;29;9290;-71
2022/04/01 01:06:45;;;;;;;;;0.00;0.00;;;;;15.90;46.20;100629.28;4933744;29;8813;-69
2022/04/01 01:09:12;;;;;;;;;0.00;0.00;;;;;15.93;46.69;100642.44;4932719;29;9279;-70
2022/04/01 01:11:38;;;;;;;;;0.00;0.00;;;;;15.86;46.63;100640.72;4933488;29;9361;-70
2022/04/01 01:14:11;;;;;;;;;0.00;0.00;;;;;15.90;46.09;100639.81;4930528;29;9220;-70
2022/04/01 01:16:41;;;;;;;;;0.00;0.00;;;;;15.92;45.97;100643.34;4932616;29;9393;-70
2022/04/01 01:19:12;;;;;;;;;0.00;0.00;;;;;15.89;46.24;100642.47;4932921;29;9284;-70
2022/04/01 01:21:39;;;;;;;;;0.00;0.00;;;;;15.89;46.02;100651.25;4933203;29;9527;-69
2022/04/01 01:24:13;;;;;;;;;0.00;0.00;;;;;15.88;46.24;100648.63;4932871;29;9480;-69
2022/04/01 01:26:39;;;;;;;;;0.00;0.00;;;;;15.87;46.43;100653.00;4933309;29;9398;-70
2022/04/01 01:29:06;;;;;;;;;0.00;0.00;;;;;15.84;46.24;100655.66;4932274;29;10230;-70
2022/04/01 01:31:32;;;;;;;;;0.00;0.00;;;;;15.84;46.44;100652.13;4935476;29;8785;-69
2022/04/01 01:33:58;;;;;;;;;0.00;0.00;;;;;15.86;46.02;100659.13;4937065;29;9282;-71
2022/04/01 01:36:26;;;;;;;;;0.00;0.00;;;;;15.84;45.91;100658.28;4936797;29;8818;-69
2022/04/01 01:38:52;;;;;;;;;0.00;0.00;;;;;15.80;45.91;100658.28;4937196;29;8840;-70
2022/04/01 01:41:18;;;;;;;;;1.00;0.00;;;;;15.85;45.96;100657.41;4937040;29;9141;-70
2022/04/01 01:43:43;;;;;;;;;0.33;0.00;;;;;15.82;46.33;100659.19;4936684;29;8814;-71
2022/04/01 01:46:09;;;;;;;;;0.00;0.00;;;;;15.82;46.29;100661.81;4936672;29;8794;-70
2022/04/01 01:48:34;;;;;;;;;0.00;0.00;;;;;15.78;46.16;100658.28;4937291;29;9574;-70
2022/04/01 01:56:28;;;;;;;;;0.00;0.00;;;;;15.80;46.19;100668.81;4936851;29;9402;-70
2022/04/01 01:58:54;;;;;;;;;0.00;0.00;;;;;15.90;48.00;100670.53;4936130;29;9487;-69
2022/04/01 02:01:20;;;;;;;;;0.00;0.00;;;;;15.84;46.31;100668.81;4936581;29;8790;-70
2022/04/01 02:03:45;;;;;;;;;0.00;0.00;;;;;15.77;46.02;100671.47;4936442;29;9216;-71
2022/04/01 02:06:10;;;;;;;;;0.00;0.00;;;;;15.74;46.11;100680.25;4936254;29;8813;-70
2022/04/01 02:08:36;;;;;;;;;0.00;0.00;;;;;15.79;45.99;100665.31;4936396;29;8877;-70
2022/04/01 02:11:02;;;;;;;;;0.00;0.00;;;;;15.77;46.06;100671.47;4936160;29;8782;-70
2022/04/01 02:13:27;;;;;;;;;0.33;0.00;;;;;15.80;45.60;100667.06;4934146;29;8900;-70
2022/04/01 02:15:55;;;;;;;;;0.67;0.00;;;;;15.76;45.72;100675.84;4936894;29;8939;-70
2022/04/01 02:18:21;;;;;;;;;0.00;0.00;;;;;15.76;46.10;100678.47;4936519;29;8809;-70
2022/04/01 02:20:48;;;;;;;;;0.00;0.00;;;;;15.80;45.49;100681.97;4936613;29;9294;-70
2022/04/01 02:23:13;;;;;;;;;0.00;0.00;;;;;15.70;45.63;100691.66;4936373;29;8814;-70
2022/04/01 02:25:42;;;;;;;;;0.00;0.00;;;;;15.72;45.67;100671.47;4936396;29;9133;-70
2022/04/01 02:28:09;;;;;;;;;0.00;0.00;;;;;15.70;45.64;100682.88;4936590;29;8790;-71
2022/04/01 02:30:34;;;;;;;;;0.33;0.00;;;;;15.75;45.73;100675.84;4936958;29;9209;-70
2022/04/01 02:32:59;;;;;;;;;0.67;0.00;;;;;15.69;45.48;100684.63;4936064;29;9319;-70
2022/04/01 02:35:24;;;;;;;;;0.00;0.00;;;;;15.69;45.73;100696.91;4936297;29;8850;-71
2022/04/01 02:37:50;;;;;;;;;0.00;0.00;;;;;15.74;45.47;100695.16;4936579;29;8829;-70
2022/04/01 02:40:15;;;;;;;;;0.00;0.00;;;;;15.71;45.62;100693.41;4935367;29;9613;-70
2022/04/01 02:42:41;;;;;;;;;2.00;0.00;;;;;15.74;45.31;100701.31;4935411;29;8814;-70
2022/04/01 02:45:07;;;;;;;;;0.00;0.00;;;;;15.73;45.39;100690.78;4935905;29;8816;-70
2022/04/01 02:47:33;;;;;;;;;0.00;0.00;;;;;15.67;45.60;100704.81;4935607;29;8786;-70
2022/04/01 02:49:59;;;;;;;;;0.00;0.00;;;;;15.67;45.46;100701.31;4935386;29;9347;-70
2022/04/01 02:52:27;;;;;;;;;0.00;0.00;;;;;15.73;45.28;100709.19;4936060;29;9366;-70
2022/04/01 02:54:53;;;;;;;;;0.00;0.00;;;;;15.71;45.22;100710.97;4935078;29;8850;-70
2022/04/01 02:57:20;;;;;;;;;0.67;0.00;;;;;15.66;45.16;100710.97;4935806;29;9335;-70
2022/04/01 02:59:46;;;;;;;;;0.00;0.00;;;;;15.70;45.06;100717.09;4935761;29;8806;-70
2022/04/01 03:02:11;;;;;;;;;0.00;0.00;;;;;15.70;45.20;100719.75;4934776;29;10560;-71
2022/04/01 03:04:37;;;;;;;;;0.67;0.00;;;;;15.65;45.15;100725.00;4935679;29;8928;-70
2022/04/01 03:07:04;;;;;;;;;0.00;0.00;;;;;15.66;45.21;100721.50;4935083;29;8849;-70
2022/04/01 03:09:30;;;;;;;;;0.00;0.00;;;;;15.70;45.26;100727.63;4935752;29;9592;-70
2022/04/01 03:11:56;;;;;;;;;0.00;0.00;;;;;15.68;45.13;100732.00;4934410;29;9280;-70
2022/04/01 03:14:22;;;;;;;;;1.00;0.00;;;;;15.68;45.02;100737.28;4933406;29;11577;-70
2022/04/01 03:16:48;;;;;;;;;0.00;0.00;;;;;15.70;44.94;100735.53;4935313;29;9604;-70
2022/04/01 03:19:13;;;;;;;;;0.00;0.00;;;;;15.66;44.93;100739.03;4935118;29;9481;-69
2022/04/01 03:21:39;;;;;;;;;0.00;0.00;;;;;15.65;45.07;100732.91;4934783;29;8934;-70
2022/04/01 03:24:06;;;;;;;;;0.00;0.00;;;;;15.62;45.25;100746.06;4935013;29;8781;-70
2022/04/01 03:26:31;;;;;;;;;0.00;0.00;;;;;15.63;44.98;100753.09;4935445;29;9320;-70
2022/04/01 03:28:56;;;;;;;;;0.00;0.00;;;;;15.68;44.74;100743.41;4934382;29;9312;-70
2022/04/01 03:31:22;;;;;;;;;0.00;0.00;;;;;15.66;44.82;100754.81;4934988;29;8936;-69
2022/04/01 03:33:47;;;;;;;;;0.00;0.00;;;;;15.68;45.00;100753.06;4935299;29;8909;-69
2022/04/01 03:36:13;;;;;;;;;0.00;0.00;;;;;15.63;45.23;100754.84;4934056;29;9287;-69
2022/04/01 03:38:39;;;;;;;;;0.00;0.00;;;;;15.60;44.83;100763.59;4934788;29;8806;-69
2022/04/01 03:41:05;;;;;;;;;0.00;0.00;;;;;15.66;44.95;100760.09;4934577;29;10098;-70
2022/04/01 03:43:34;;;;;;;;;0.00;0.00;;;;;15.66;44.85;100760.97;4934564;29;9407;-70
2022/04/01 03:46:05;;;;;;;;;0.00;0.00;;;;;15.63;44.70;100775.88;4934501;29;8785;-70
2022/04/01 03:48:57;;;;;;;;;0.00;0.00;;;;;15.60;44.78;100778.50;4934727;29;9288;-70
2022/04/01 03:51:25;;;;;;;;;0.00;0.00;;;;;15.60;45.05;100771.47;4934072;29;9356;-70
2022/04/01 03:54:00;;;;;;;;;0.00;0.00;;;;;15.62;44.95;100782.91;4934741;29;9483;-70
2022/04/01 03:56:30;;;;;;;;;0.00;0.00;;;;;15.59;44.77;100785.53;4934041;29;9553;-70
2022/04/01 03:59:00;;;;;;;;;0.00;0.00;;;;;15.87;48.45;100779.38;4934281;29;9374;-69
2022/04/01 04:01:26;;;;;;;;;0.00;0.00;;;;;15.64;44.66;100775.88;4934224;29;9494;-70
2022/04/01 04:03:53;;;;;;;;;0.00;0.00;;;;;15.62;45.02;100779.41;4934069;29;9465;-70
2022/04/01 04:06:19;;;;;;;;;0.00;0.00;;;;;15.56;44.80;100784.66;4934332;29;8790;-69
2022/04/01 04:08:46;;;;;;;;;0.00;0.00;;;;;15.55;44.98;100780.28;4934696;29;9357;-70
2022/04/01 04:11:18;;;;;;;;;0.00;0.00;;;;;15.57;44.89;100787.28;4934034;29;9678;-70
2022/04/01 04:13:45;;;;;;;;;0.00;0.00;;;;;15.57;44.96;100796.91;4931562;29;9366;-69
2022/04/01 04:16:21;;;;;;;;;0.00;0.00;;;;;15.56;45.03;100788.16;4933887;29;9403;-70
2022/04/01 04:19:00;;;;;;;;;0.00;0.00;;;;;15.52;44.85;100790.81;4933890;29;9217;-70
2022/04/01 04:21:32;;;;;;;;;0.00;0.00;;;;;15.54;44.86;100800.44;4934014;29;9370;-70
2022/04/01 04:24:01;;;;;;;;;0.00;0.00;;;;;15.56;44.95;100806.56;4933540;29;9427;-70
2022/04/01 04:26:32;;;;;;;;;0.00;0.00;;;;;15.51;44.62;100803.06;4933835;29;9388;-70
2022/04/01 04:29:12;;;;;;;;;0.75;0.00;;;;;15.56;44.92;100813.63;4933715;29;10302;-70
2022/04/01 04:31:43;;;;;;;;;0.00;0.00;;;;;15.52;44.67;100811.84;4933481;29;9446;-70
2022/04/01 04:34:11;;;;;;;;;0.50;0.00;;;;;15.53;44.63;100822.34;4933674;29;9457;-70
2022/04/01 04:36:38;;;;;;;;;0.00;0.00;;;;;15.54;44.94;100817.97;4933706;29;9458;-70
2022/04/01 04:39:06;;;;;;;;;1.00;1.00;;;;;15.50;44.75;100822.34;4933351;29;9289;-71
2022/04/01 04:41:32;;;;;;;;;0.00;0.00;;;;;15.50;44.82;100824.09;4933842;29;9621;-69
2022/04/01 04:43:59;;;;;;;;;0.00;0.00;;;;;15.50;44.79;100821.47;4933567;29;9292;-69
2022/04/01 04:46:26;;;;;;;;;0.00;0.00;;;;;15.50;44.65;100837.25;4933414;29;9371;-70
2022/04/01 04:48:54;;;;;;;;;0.00;0.00;;;;;15.51;44.64;100839.91;4933585;29;9380;-71
2022/04/01 04:51:25;;;;;;;;;0.00;0.00;;;;;15.51;44.49;100836.41;4933623;29;9320;-70
2022/04/01 04:53:51;;;;;;;;;0.00;0.00;;;;;15.51;44.62;100846.94;4933533;29;9253;-70
2022/04/01 04:56:20;;;;;;;;;0.00;0.00;;;;;15.51;44.60;100839.03;4933709;29;9432;-71
2022/04/01 04:58:47;;;;;;;;;0.00;0.00;;;;;15.49;44.54;100849.53;4933754;29;8801;-70
2022/04/01 05:01:38;;;;;;;;;0.00;0.00;;;;;15.49;44.55;100860.06;4932977;29;9383;-70
2022/04/01 05:04:22;;;;;;;;;0.00;0.00;;;;;15.50;44.60;100860.94;4933721;29;9268;-70
2022/04/01 05:07:10;;;;;;;;;0.00;0.00;;;;;15.52;44.30;100865.34;4933046;29;9394;-70
2022/04/01 05:10:01;;;;;;;;;0.00;0.00;;;;;15.49;44.49;100878.47;4933564;29;9457;-70
2022/04/01 05:12:33;;;;;;;;;0.00;0.00;;;;;15.47;44.61;100880.22;4931102;29;9515;-70
2022/04/01 05:14:58;;;;;;;;;0.00;0.00;;;;;15.45;44.51;100879.31;4933190;29;9376;-70
2022/04/01 05:17:35;;;;;;;;;0.00;0.00;;;;;15.42;44.46;100889.84;4933864;29;9293;-70
2022/04/01 05:20:02;;;;;;;;;0.00;0.00;;;;;15.47;44.34;100891.63;4933529;29;8790;-71
2022/04/01 05:22:54;;;;;;;;;0.00;0.00;;;;;15.48;44.30;100901.25;4933124;29;9359;-70
2022/04/01 05:25:21;;;;;;;;;0.00;0.00;;;;;15.48;44.35;100903.03;4908012;29;9474;-71
2022/04/01 05:27:49;;;;;;;;;0.00;0.00;;;;;15.50;44.22;100897.78;4933045;29;9852;-70
2022/04/01 05:30:20;;;;;;;;;0.00;0.00;;;;;15.46;44.14;100905.66;4933022;29;9462;-70
2022/04/01 05:32:59;;;;;;;;;0.00;0.00;;;;;15.45;44.37;100913.53;4933354;29;9371;-71
2022/04/01 05:35:27;;;;;;;;;0.00;0.00;;;;;15.42;44.18;100921.41;4932976;29;9484;-71
2022/04/01 05:37:54;;;;;;;;;0.00;0.00;;;;;15.43;44.39;100912.66;4933052;29;9381;-71
2022/04/01 05:40:21;;;;;;;;;0.00;0.00;;;;;15.43;44.21;100920.53;4933332;29;9312;-71
2022/04/01 05:42:47;;;;;;;;;0.00;0.00;;;;;15.45;44.35;100931.94;4932860;29;9209;-71
2022/04/01 05:45:16;;;;;;;;;1.00;0.00;;;;;15.44;44.22;100933.72;4932386;29;10224;-71
2022/04/01 05:47:44;;;;;;;;;0.00;0.00;;;;;15.43;44.09;100937.22;4933276;29;9370;-70
2022/04/01 05:50:09;;;;;;;;;0.00;0.00;;;;;15.44;44.09;100932.84;4932172;29;9312;-71
2022/04/01 05:52:37;;;;;;;;;0.00;0.00;;;;;15.44;44.20;100938.97;4932838;29;9378;-71
2022/04/01 05:55:03;;;;;;;;;0.00;0.00;;;;;15.40;44.21;100942.47;4932598;29;8826;-70
2022/04/01 05:57:28;;;;;;;;;0.00;0.00;;;;;15.44;44.22;100944.25;4932480;29;9289;-71
2022/04/01 05:59:53;;;;;;;;;0.33;0.00;;;;;15.47;44.05;100960.03;4932156;29;8806;-72
2022/04/01 06:02:43;;;;;;;;;0.00;0.00;;;;;15.69;49.16;100963.63;4933243;29;8794;-71
2022/04/01 06:05:17;;;;;;;;;0.00;0.00;;;;;15.80;45.73;100956.63;4932577;29;8821;-73
2022/04/01 06:08:02;;;;;;;;;0.00;0.00;;;;;15.81;46.18;100957.53;4932682;29;9304;-75
2022/04/01 06:10:40;;;;;;;;;1.00;1.00;;;;;15.81;46.78;100971.56;4932234;29;9228;-75
2022/04/01 06:13:30;;;;;;;;;0.00;0.00;;;;;15.86;47.60;100976.81;4929744;29;9344;-74
2022/04/01 06:16:16;;;;;;;;;0.00;0.00;;;;;15.89;49.53;100966.31;4932639;29;9150;-74
2022/04/01 06:19:06;;;;;;;;;1.00;0.00;;;;;15.94;48.19;100980.34;4935979;29;9166;-73
2022/04/01 06:21:42;;;;;;;;;0.00;0.00;;;;;15.99;48.12;100981.25;4936527;29;10015;-72
2022/04/01 06:24:33;;;;;;;;;0.00;0.00;;;;;16.10;49.08;100987.41;4935785;29;10700;-71
2022/04/01 06:27:00;;;;;;;;;0.00;0.00;;;;;16.26;53.75;100972.50;4936154;29;9377;-71
2022/04/01 06:29:42;;;;;;;;;0.33;0.00;;;;;16.36;51.07;100987.41;4936465;29;9303;-71
2022/04/01 06:32:32;;;;;;;;;0.00;0.00;;;;;16.37;51.77;100991.81;4935815;29;9191;-72
2022/04/01 06:35:18;;;;;;;;;0.00;0.00;;;;;16.37;54.12;101002.38;4935555;29;9232;-72
2022/04/01 06:37:56;;;;;;;;;1.00;0.67;;;;;16.38;57.84;100997.06;4936489;29;9446;-73
2022/04/01 06:40:26;;;;;;;;;0.00;0.00;;;;;16.34;56.73;100989.19;4935833;29;9281;-72
2022/04/01 06:42:55;;;;;;;;;0.00;0.00;;;;;16.27;56.96;101001.47;4935786;29;9442;-70
2022/04/01 06:45:21;;;;;;;;;0.67;0.33;;;;;16.25;57.67;101000.59;4935285;29;9371;-72
2022/04/01 06:47:47;;;;;;;;;0.00;0.00;;;;;16.24;57.32;101005.84;4935021;29;9298;-71
2022/04/01 06:50:13;;;;;;;;;0.00;0.00;;;;;16.22;56.34;101002.34;4929420;29;8797;-71
2022/04/01 06:52:39;;;;;;;;;0.00;0.00;;;;;16.22;57.02;101007.63;4915965;29;9173;-71
2022/04/01 06:55:08;;;;;;;;;1.00;0.00;;;;;16.20;57.03;101014.63;4925146;29;9618;-71
2022/04/01 06:57:33;;;;;;;;;0.33;0.00;;;;;16.20;57.08;101014.63;4935254;29;9363;-72
2022/04/01 06:59:59;;;;;;;;;1.00;0.00;;;;;16.17;56.76;101015.50;4934224;29;9408;-71
2022/04/01 07:02:24;;;;;;;;;2.00;1.00;;;;;16.16;55.77;101019.00;4934842;29;8825;-72
2022/04/01 07:04:49;;;;;;;;;0.67;0.67;;;;;16.14;55.63;101015.50;4935214;29;8814;-71
2022/04/01 07:07:15;;;;;;;;;0.00;0.00;;;;;16.16;56.53;101020.78;4934668;29;8833;-72
2022/04/01 07:09:41;;;;;;;;;0.00;0.00;;;;;16.09;55.28;101019.88;4935568;29;8880;-72
2022/04/01 07:12:07;;;;;;;;;0.00;0.00;;;;;16.11;55.68;101026.06;4932630;29;12226;-74
2022/04/01 07:14:32;;;;;;;;;0.00;0.00;;;;;16.10;55.38;101023.41;4934774;29;9443;-72
2022/04/01 07:16:59;;;;;;;;;0.00;0.00;;;;;16.10;55.32;101032.19;4934889;29;8805;-72
2022/04/01 07:19:24;;;;;;;;;0.00;0.00;;;;;16.09;55.26;101030.41;4935453;29;8818;-72
2022/04/01 07:21:50;;;;;;;;;0.00;0.00;;;;;16.12;54.83;101037.47;4934408;29;9529;-72
2022/04/01 07:24:15;;;;;;;;;0.00;0.00;;;;;16.10;54.34;101044.47;4935300;29;8828;-72
2022/04/01 07:26:43;;;;;;;;;1.00;0.00;;;;;16.10;54.73;101032.19;4935463;29;9623;-72
2022/04/01 07:29:13;;;;;;;;;0.00;0.00;;;;;16.11;54.26;101041.84;4933320;29;8861;-71
2022/04/01 07:34:31;;;;;;;;;0.00;0.00;;;;;16.07;53.84;101041.84;4935078;29;9350;-73
2022/04/01 07:36:57;;;;;;;;;1.00;0.00;;;;;16.03;53.47;101037.44;4934972;29;9299;-71
2022/04/01 07:39:22;;;;;;;;;0.00;0.00;;;;;16.04;53.23;101052.38;4935219;29;9281;-72
2022/04/01 07:41:47;;;;;;;;;0.67;0.00;;;;;16.09;53.05;101050.59;4934662;29;8820;-72
2022/04/01 07:44:13;;;;;;;;;0.00;0.00;;;;;16.08;53.20;101054.13;4934399;29;8803;-71
2022/04/01 07:46:38;;;;;;;;;0.00;0.00;;;;;16.08;53.19;101067.31;4934677;29;8863;-72
2022/04/01 07:49:04;;;;;;;;;0.00;0.00;;;;;16.06;52.78;101062.03;4933756;29;8862;-72
2022/04/01 07:51:29;;;;;;;;;0.00;0.00;;;;;16.09;52.99;101064.66;4934584;29;8868;-72
2022/04/01 07:53:54;;;;;;;;;1.00;0.00;;;;;16.03;52.17;101054.13;4934031;29;9419;-72
2022/04/01 07:56:20;;;;;;;;;0.00;0.00;;;;;16.06;53.06;101062.03;4934265;29;8834;-72
2022/04/01 07:58:45;;;;;;;;;1.00;0.00;;;;;16.03;52.40;101072.56;4934399;29;8871;-72
2022/04/01 08:01:11;;;;;;;;;0.00;0.00;;;;;16.04;52.50;101068.16;4934358;29;8837;-72
2022/04/01 08:03:41;;;;;;;;;0.67;0.67;;;;;16.04;51.92;101074.31;4934260;29;8794;-72
2022/04/01 08:06:07;;;;;;;;;1.00;1.00;;;;;15.98;51.72;101063.75;4934026;29;8805;-72
2022/04/01 08:08:32;;;;;;;;;1.00;0.00;;;;;16.01;51.77;101071.66;4934258;29;9384;-72
2022/04/01 08:10:58;;;;;;;;;0.00;0.00;;;;;15.95;51.77;101075.16;4933403;29;8814;-72
2022/04/01 08:13:24;;;;;;;;;0.00;0.00;;;;;16.03;51.88;101087.47;4931643;29;8813;-72
2022/04/01 08:15:50;;;;;;;;;0.00;0.00;;;;;16.05;51.34;101090.97;4934464;29;8822;-71
2022/04/01 08:18:15;;;;;;;;;0.00;0.00;;;;;16.02;51.76;101083.06;4933148;29;10151;-71
2022/04/01 08:20:40;;;;;;;;;0.00;0.00;;;;;15.98;50.94;101099.72;4934165;29;8857;-72
2022/04/01 08:23:06;;;;;;;;;0.00;0.00;;;;;15.99;51.46;101088.34;4933791;29;8813;-72
2022/04/01 08:25:31;;;;;;;;;0.00;0.00;;;;;16.03;51.29;101093.63;4933144;29;8863;-71
2022/04/01 08:27:56;;;;;;;;;0.67;0.00;;;;;15.99;50.93;101093.59;4933625;29;8905;-71
2022/04/01 08:30:21;;;;;;;;;0.00;0.00;;;;;16.00;50.95;101098.88;4934250;29;9035;-71
2022/04/01 08:32:47;;;;;;;;;0.00;0.00;;;;;15.94;51.01;101091.81;4933231;29;8790;-72
2022/04/01 08:35:12;;;;;;;;;0.00;0.00;;;;;16.01;50.56;101119.06;4933461;29;8841;-72
2022/04/01 08:37:39;;;;;;;;;0.00;0.00;;;;;16.00;50.27;101111.16;4933649;29;8900;-72
2022/04/01 08:40:05;;;;;;;;;0.00;0.00;;;;;16.00;50.06;101127.84;4932690;29;8888;-72
2022/04/01 08:42:37;;;;;;;;;0.00;0.00;;;;;15.95;50.41;101113.78;4933554;29;9221;-72
2022/04/01 08:45:07;;;;;;;;;0.00;0.00;;;;;15.97;49.98;101122.59;4933131;29;10082;-72
2022/04/01 08:47:35;;;;;;;;;0.00;0.00;;;;;15.97;50.57;101138.38;4933435;29;9944;-72
2022/04/01 08:50:01;;;;;;;;;0.00;0.00;;;;;15.99;50.30;101127.84;4933456;29;9398;-72
2022/04/01 08:52:26;;;;;;;;;0.00;0.00;;;;;15.93;49.82;101136.59;4933274;29;9527;-72
2022/04/01 08:54:51;;;;;;;;;0.00;0.00;;;;;15.95;49.81;101130.47;4933454;29;8944;-72
2022/04/01 08:57:18;;;;;;;;;0.00;0.00;;;;;15.96;50.10;101139.25;4933200;29;8843;-72
2022/04/01 08:59:43;;;;;;;;;0.00;0.00;;;;;15.94;49.60;101140.97;4933159;29;8801;-72
2022/04/01 09:02:10;;;;;;;;;0.00;0.00;;;;;15.97;50.02;101146.28;4933018;29;10353;-71
2022/04/01 09:04:36;;;;;;;;;0.00;0.00;;;;;15.92;49.62;101142.75;4933570;29;8805;-71
2022/04/01 09:07:13;;;;;;;;;0.00;0.00;;;;;15.97;49.96;101145.41;4932275;29;10117;-71
2022/04/01 09:09:39;;;;;;;;;0.00;0.00;;;;;15.98;49.77;101158.56;4933307;29;9405;-71
2022/04/01 09:12:06;;;;;;;;;0.00;0.00;;;;;15.97;49.83;101163.84;4930796;29;9359;-72
2022/04/01 09:14:32;;;;;;;;;0.00;0.00;;;;;15.93;49.50;101166.41;4932326;29;8840;-72
2022/04/01 09:16:58;;;;;;;;;0.33;0.00;;;;;15.97;49.77;101167.34;4932843;29;9209;-71
2022/04/01 09:19:31;;;;;;;;;0.00;0.00;;;;;15.89;49.60;101167.31;4933331;29;9225;-71
2022/04/01 09:21:57;;;;;;;;;0.00;0.00;;;;;15.95;49.25;101180.50;4932550;29;8953;-72
2022/04/01 09:24:25;;;;;;;;;0.00;0.00;;;;;15.92;49.61;101169.94;4933431;29;9401;-71
2022/04/01 09:26:56;;;;;;;;;0.00;0.00;;;;;15.94;49.52;101176.09;4933132;29;8822;-72
2022/04/01 09:29:23;;;;;;;;;0.00;0.00;;;;;15.96;49.25;101184.00;4933188;29;9224;-71
2022/04/01 09:31:53;;;;;;;;;0.00;0.00;;;;;15.97;48.74;101192.78;4933185;29;9205;-71
2022/04/01 09:34:18;;;;;;;;;0.00;0.00;;;;;15.90;49.12;101198.00;4932632;29;9035;-71
2022/04/01 09:36:44;;;;;;;;;0.00;0.00;;;;;15.94;49.25;101186.63;4932666;29;9338;-72
2022/04/01 09:39:11;;;;;;;;;0.00;0.00;;;;;15.92;48.98;101201.56;4932887;29;8785;-72
2022/04/01 09:41:47;;;;;;;;;1.00;0.00;;;;;15.98;48.97;101205.06;4932880;29;9430;-72
2022/04/01 09:44:19;;;;;;;;;0.33;0.00;;;;;15.94;48.88;101212.06;4933047;29;9283;-72
2022/04/01 09:46:53;;;;;;;;;0.00;0.00;;;;;15.94;48.79;101206.81;4932964;29;10070;-72
2022/04/01 09:49:48;;;;;;;;;0.00;0.00;;;;;15.90;48.66;101205.91;4932361;29;9381;-72
2022/04/01 09:52:18;;;;;;;;;0.00;0.00;;;;;15.96;48.51;101205.09;4922041;29;9417;-71
2022/04/01 09:54:43;;;;;;;;;0.00;0.00;;;;;15.91;48.57;101204.16;4936905;29;9385;-71
2022/04/01 09:57:09;;;;;;;;;0.00;0.00;;;;;15.90;48.50;101203.28;4935762;29;10120;-72
2022/04/01 09:59:35;;;;;;;;;0.00;0.00;;;;;15.98;48.49;101215.59;4936791;29;8930;-72
2022/04/01 10:02:00;;;;;;;;;0.00;0.00;;;;;15.89;48.73;101219.09;4936041;29;9290;-72
2022/04/01 10:04:25;;;;;;;;;0.00;0.00;;;;;15.92;48.50;101208.56;4936592;29;9526;-72
2022/04/01 10:06:52;;;;;;;;;0.00;0.00;;;;;15.91;48.77;101226.13;4936610;29;8857;-72
2022/04/01 10:09:21;;;;;;;;;0.00;0.00;;;;;15.98;48.27;101215.59;4936015;29;8810;-72
2022/04/01 10:11:47;;;;;;;;;0.00;0.00;;;;;15.95;48.33;101222.63;4936264;29;10106;-72
2022/04/01 10:14:16;;;;;;;;;0.00;0.00;;;;;15.92;48.13;101219.09;4933173;29;9274;-72
2022/04/01 10:16:44;;;;;;;;;0.00;0.00;;;;;15.90;48.05;101228.72;4936025;29;9236;-72
2022/04/01 10:19:34;;;;;;;;;0.00;0.00;;;;;16.01;48.12;101231.44;4935839;29;9381;-72
2022/04/01 10:22:01;;;;;;;;;0.00;0.00;;;;;15.95;47.92;101222.63;4936201;29;9361;-72
2022/04/01 10:24:47;;;;;;;;;0.00;0.00;;;;;15.97;48.07;101230.56;4935471;29;9363;-72
2022/04/01 10:27:33;;;;;;;;;0.00;0.00;;;;;15.93;47.87;101241.94;4936187;29;9291;-72
2022/04/01 10:29:59;;;;;;;;;0.00;0.00;;;;;15.93;47.77;101240.16;4935250;29;10177;-72
2022/04/01 10:32:38;;;;;;;;;0.00;0.00;;;;;15.88;47.80;101244.53;4936172;29;9363;-72
2022/04/01 10:35:06;;;;;;;;;0.00;0.00;;;;;15.91;47.58;101249.81;4935378;29;8841;-71
2022/04/01 10:37:33;;;;;;;;;0.00;0.00;;;;;15.89;47.78;101234.88;4935273;29;9307;-71
2022/04/01 10:40:04;;;;;;;;;0.00;0.00;;;;;15.87;47.56;101244.50;4936946;29;10071;-71
2022/04/01 10:42:38;;;;;;;;;0.00;0.00;;;;;16.03;47.59;101241.09;4936028;29;9422;-70
2022/04/01 10:45:15;;;;;;;;;0.00;0.00;;;;;15.95;47.23;101246.31;4935113;29;9283;-70
2022/04/01 10:53:35;;;;;;;;;0.00;0.00;;;;;15.90;47.28;101250.66;4935048;29;9327;-70
2022/04/01 10:56:18;;;;;;;;;0.00;0.00;;;;;15.92;47.46;101256.84;4935105;29;9177;-70
2022/04/01 10:59:02;;;;;;;;;0.00;0.00;;;;;15.93;47.37;101257.75;4935294;29;9413;-71
2022/04/01 11:01:28;;;;;;;;;0.00;0.00;;;;;15.87;47.06;101250.66;4935485;29;9374;-70
2022/04/01 11:04:19;;;;;;;;;0.00;0.00;;;;;15.86;47.43;101261.16;4934208;29;9278;-70
2022/04/01 11:07:05;;;;;;;;;0.00;0.00;;;;;15.86;47.16;101250.63;4934077;29;8825;-71
2022/04/01 11:09:45;;;;;;;;;0.00;0.00;;;;;15.87;47.30;101252.41;4935564;29;9295;-71
2022/04/01 11:12:19;;;;;;;;;1.00;0.00;;;;;15.82;47.04;101262.06;4931819;29;9311;-71
2022/04/01 11:14:56;;;;;;;;;0.00;0.00;;;;;15.90;46.99;101247.16;4935039;29;9321;-71
2022/04/01 11:17:23;;;;;;;;;0.00;0.00;;;;;15.83;47.19;101267.31;4935409;29;9385;-71
2022/04/01 11:20:22;;;;;;;;;0.00;0.00;;;;;15.85;47.09;101259.44;4934771;29;10043;-71
2022/04/01 11:22:53;;;;;;;;;0.00;0.00;;;;;15.91;46.79;101255.09;4924972;29;9355;-71
2022/04/01 11:25:21;;;;;;;;;0.00;0.00;;;;;15.90;46.57;101268.22;4935158;29;9310;-71
2022/04/01 11:27:58;;;;;;;;;0.00;0.00;;;;;15.90;46.86;101269.09;4934589;29;9354;-71
2022/04/01 11:30:29;;;;;;;;;0.00;0.00;;;;;15.83;46.85;101276.94;4935241;29;9230;-71
2022/04/01 11:33:00;;;;;;;;;0.00;0.00;;;;;15.85;46.74;101281.38;4934878;29;9368;-71
2022/04/01 11:35:28;;;;;;;;;0.00;0.00;;;;;15.89;46.66;101277.00;4934712;29;9429;-71
2022/04/01 11:37:54;;;;;;;;;0.00;0.00;;;;;15.85;46.62;101277.88;4935056;29;9212;-71
2022/04/01 11:40:25;;;;;;;;;0.00;0.00;;;;;15.83;47.03;101277.84;4934519;29;9234;-71
2022/04/01 11:43:04;;;;;;;;;0.00;0.00;;;;;15.85;46.75;101277.88;4935020;29;8797;-71
2022/04/01 11:45:42;;;;;;;;;1.00;0.00;;;;;15.78;46.67;101290.06;4935296;29;9351;-72
2022/04/01 11:48:21;;;;;;;;;0.00;0.00;;;;;15.84;46.97;101290.13;4934095;29;9300;-72
2022/04/01 11:50:51;;;;;;;;;0.00;0.00;;;;;15.75;46.71;101281.28;4934230;29;9304;-72
2022/04/01 11:53:22;;;;;;;;;0.67;0.00;;;;;15.82;46.62;101289.22;4934436;29;9358;-72
2022/04/01 11:55:47;;;;;;;;;0.00;0.00;;;;;15.80;46.62;101293.63;4934018;29;9398;-72